sensor_id;sensor_type;location;lat;lon;timestamp;pressure;altitude;pressure_sealevel;temperature;humidity
54854;BME280;40747;49.480;8.658;2023-03-14T00:01:50;98557.69;;;10.38;100.00
54854;BME280;40747;49.480;8.658;2023-03-14T00:04:15;98554.63;;;10.46;100.00
54854;BME280;40747;49.480;8.658;2023-03-14T00:06:41;98554.03;;;10.41;100.00
54854;BME280;40747;49.480;8.658;2023-03-14T00:09:06;98554.31;;;10.36;100.00
54854;BME280;40747;49.480;8.658;2023-03-14T00:11:31;98560.59;;;10.33;100.00
54854;BME280;40747;49.480;8.658;2023-03-14T00:13:57;98552.19;;;10.27;100.00
54854;BME280;40747;49.480;8.658;2023-03-14T00:16:22;98563.31;;;10.32;100.00
54854;BME280;40747;49.480;8.658;2023-03-14T00:18:47;98548.19;;;10.36;100.00
54854;BME280;40747;49.480;8.658;2023-03-14T00:21:13;98558.88;;;10.32;100.00
54854;BME280;40747;49.480;8.658;2023-03-14T00:23:40;98562.13;;;10.38;100.00
54854;BME280;40747;49.480;8.658;2023-03-14T00:26:14;98551.19;;;10.29;100.00
54854;BME280;40747;49.480;8.658;2023-03-14T00:28:41;98551.91;;;10.31;100.00
54854;BME280;40747;49.480;8.658;2023-03-14T00:31:07;98551.75;;;10.35;100.00
54854;BME280;40747;49.480;8.658;2023-03-14T00:33:33;98547.41;;;10.33;100.00
54854;BME280;40747;49.480;8.658;2023-03-14T00:36:01;98548.03;;;10.39;100.00
54854;BME280;40747;49.480;8.658;2023-03-14T00:38:26;98544.31;;;10.27;100.00
54854;BME280;40747;49.480;8.658;2023-03-14T00:40:52;98542.06;;;10.35;100.00
54854;BME280;40747;49.480;8.658;2023-03-14T00:43:19;98536.03;;;10.33;100.00
54854;BME280;40747;49.480;8.658;2023-03-14T00:45:46;98542.16;;;10.33;100.00
54854;BME280;40747;49.480;8.658;2023-03-14T00:48:11;98545.31;;;10.24;100.00
54854;BME280;40747;49.480;8.658;2023-03-14T00:50:38;98536.81;;;10.35;100.00
54854;BME280;40747;49.480;8.658;2023-03-14T00:53:03;98538.44;;;10.38;100.00
54854;BME280;40747;49.480;8.658;2023-03-14T00:55:28;98533.69;;;10.28;100.00
54854;BME280;40747;49.480;8.658;2023-03-14T00:57:54;98534.09;;;10.37;100.00
54854;BME280;40747;49.480;8.658;2023-03-14T01:00:19;98525.09;;;10.41;100.00
54854;BME280;40747;49.480;8.658;2023-03-14T01:02:44;98526.97;;;10.39;100.00
54854;BME280;40747;49.480;8.658;2023-03-14T01:05:09;98537.16;;;10.45;100.00
54854;BME280;40747;49.480;8.658;2023-03-14T01:07:36;98539.28;;;10.38;100.00
54854;BME280;40747;49.480;8.658;2023-03-14T01:10:02;98534.78;;;10.40;100.00
54854;BME280;40747;49.480;8.658;2023-03-14T01:12:27;98536.03;;;10.49;100.00
54854;BME280;40747;49.480;8.658;2023-03-14T01:14:53;98547.09;;;10.40;100.00
54854;BME280;40747;49.480;8.658;2023-03-14T01:17:18;98548.25;;;10.50;100.00
54854;BME280;40747;49.480;8.658;2023-03-14T01:19:43;98542.78;;;10.39;100.00
54854;BME280;40747;49.480;8.658;2023-03-14T01:22:09;98530.53;;;10.38;100.00
54854;BME280;40747;49.480;8.658;2023-03-14T01:24:34;98515.06;;;10.31;100.00
54854;BME280;40747;49.480;8.658;2023-03-14T01:26:59;98520.19;;;10.35;100.00
54854;BME280;40747;49.480;8.658;2023-03-14T01:29:24;98520.13;;;10.36;100.00
54854;BME280;40747;49.480;8.658;2023-03-14T01:31:50;98510.00;;;10.28;100.00
54854;BME280;40747;49.480;8.658;2023-03-14T01:34:15;98514.69;;;10.23;100.00
54854;BME280;40747;49.480;8.658;2023-03-14T01:36:40;98493.28;;;10.29;100.00
54854;BME280;40747;49.480;8.658;2023-03-14T01:39:05;98502.84;;;10.30;100.00
54854;BME280;40747;49.480;8.658;2023-03-14T01:41:31;98496.75;;;10.30;100.00
54854;BME280;40747;49.480;8.658;2023-03-14T01:43:57;98488.53;;;10.20;100.00
54854;BME280;40747;49.480;8.658;2023-03-14T01:46:28;98483.03;;;10.25;100.00
54854;BME280;40747;49.480;8.658;2023-03-14T01:49:02;98496.84;;;10.28;100.00
54854;BME280;40747;49.480;8.658;2023-03-14T01:54:27;98488.75;;;10.31;100.00
54854;BME280;40747;49.480;8.658;2023-03-14T01:57:08;98482.16;;;10.24;100.00
54854;BME280;40747;49.480;8.658;2023-03-14T01:59:37;98476.38;;;10.33;100.00
54854;BME280;40747;49.480;8.658;2023-03-14T02:02:05;98462.28;;;10.35;100.00
54854;BME280;40747;49.480;8.658;2023-03-14T02:04:34;98454.84;;;10.27;100.00
54854;BME280;40747;49.480;8.658;2023-03-14T02:07:07;98455.84;;;10.24;100.00
54854;BME280;40747;49.480;8.658;2023-03-14T02:09:34;98447.00;;;10.25;100.00
54854;BME280;40747;49.480;8.658;2023-03-14T02:12:00;98459.13;;;10.28;100.00
54854;BME280;40747;49.480;8.658;2023-03-14T02:14:30;98453.13;;;10.26;100.00
54854;BME280;40747;49.480;8.658;2023-03-14T02:16:57;98444.66;;;10.21;100.00
54854;BME280;40747;49.480;8.658;2023-03-14T02:19:31;98445.13;;;10.13;100.00
54854;BME280;40747;49.480;8.658;2023-03-14T02:22:06;98456.81;;;10.23;100.00
54854;BME280;40747;49.480;8.658;2023-03-14T02:27:18;98428.22;;;10.17;100.00
54854;BME280;40747;49.480;8.658;2023-03-14T02:29:54;98435.81;;;10.22;100.00
54854;BME280;40747;49.480;8.658;2023-03-14T02:32:22;98435.81;;;10.22;100.00
54854;BME280;40747;49.480;8.658;2023-03-14T02:34:52;98441.47;;;10.15;100.00
54854;BME280;40747;49.480;8.658;2023-03-14T02:37:20;98438.66;;;10.19;100.00
54854;BME280;40747;49.480;8.658;2023-03-14T02:39:48;98435.69;;;10.09;100.00
54854;BME280;40747;49.480;8.658;2023-03-14T02:42:14;98435.53;;;10.12;100.00
54854;BME280;40747;49.480;8.658;2023-03-14T02:44:49;98428.22;;;10.17;100.00
54854;BME280;40747;49.480;8.658;2023-03-14T02:47:15;98429.72;;;10.21;100.00
54854;BME280;40747;49.480;8.658;2023-03-14T02:49:41;98430.38;;;10.25;100.00
54854;BME280;40747;49.480;8.658;2023-03-14T02:52:06;98424.47;;;10.21;100.00
54854;BME280;40747;49.480;8.658;2023-03-14T02:54:31;98429.81;;;10.05;100.00
54854;BME280;40747;49.480;8.658;2023-03-14T02:56:57;98409.94;;;9.99;100.00
54854;BME280;40747;49.480;8.658;2023-03-14T02:59:22;98395.19;;;9.97;100.00
54854;BME280;40747;49.480;8.658;2023-03-14T03:01:47;98420.78;;;10.09;100.00
54854;BME280;40747;49.480;8.658;2023-03-14T03:04:12;98420.50;;;10.14;100.00
54854;BME280;40747;49.480;8.658;2023-03-14T03:06:38;98423.41;;;10.09;100.00
54854;BME280;40747;49.480;8.658;2023-03-14T03:09:03;98414.41;;;10.13;100.00
54854;BME280;40747;49.480;8.658;2023-03-14T03:11:28;98399.63;;;10.11;100.00
54854;BME280;40747;49.480;8.658;2023-03-14T03:13:53;98411.44;;;10.04;100.00
54854;BME280;40747;49.480;8.658;2023-03-14T03:16:19;98424.69;;;10.02;100.00
54854;BME280;40747;49.480;8.658;2023-03-14T03:18:44;98411.28;;;10.07;100.00
54854;BME280;40747;49.480;8.658;2023-03-14T03:21:09;98396.81;;;10.14;100.00
54854;BME280;40747;49.480;8.658;2023-03-14T03:23:35;98387.31;;;10.11;100.00
54854;BME280;40747;49.480;8.658;2023-03-14T03:26:00;98387.78;;;10.04;100.00
54854;BME280;40747;49.480;8.658;2023-03-14T03:28:27;98372.66;;;10.07;100.00
54854;BME280;40747;49.480;8.658;2023-03-14T03:30:52;98374.09;;;10.13;100.00
54854;BME280;40747;49.480;8.658;2023-03-14T03:33:18;98373.88;;;10.02;100.00
54854;BME280;40747;49.480;8.658;2023-03-14T03:35:48;98370.59;;;10.12;100.00
54854;BME280;40747;49.480;8.658;2023-03-14T03:38:14;98361.22;;;10.08;100.00
54854;BME280;40747;49.480;8.658;2023-03-14T03:40:40;98354.16;;;10.09;100.00
54854;BME280;40747;49.480;8.658;2023-03-14T03:43:05;98342.91;;;10.07;100.00
54854;BME280;40747;49.480;8.658;2023-03-14T03:45:30;98327.56;;;10.13;100.00
54854;BME280;40747;49.480;8.658;2023-03-14T03:47:56;98337.44;;;10.10;100.00
54854;BME280;40747;49.480;8.658;2023-03-14T03:50:21;98331.72;;;10.17;100.00
54854;BME280;40747;49.480;8.658;2023-03-14T03:52:46;98324.28;;;10.24;100.00
54854;BME280;40747;49.480;8.658;2023-03-14T03:55:11;98321.84;;;10.21;100.00
54854;BME280;40747;49.480;8.658;2023-03-14T03:57:37;98330.69;;;10.06;100.00
54854;BME280;40747;49.480;8.658;2023-03-14T04:00:03;98310.56;;;9.90;100.00
54854;BME280;40747;49.480;8.658;2023-03-14T04:02:30;98332.19;;;10.10;100.00
54854;BME280;40747;49.480;8.658;2023-03-14T04:04:55;98331.03;;;10.14;100.00
54854;BME280;40747;49.480;8.658;2023-03-14T04:07:20;98335.09;;;10.05;100.00
54854;BME280;40747;49.480;8.658;2023-03-14T04:09:46;98342.78;;;9.94;100.00
54854;BME280;40747;49.480;8.658;2023-03-14T04:12:11;98341.75;;;9.96;100.00
54854;BME280;40747;49.480;8.658;2023-03-14T04:14:37;98332.28;;;9.94;100.00
54854;BME280;40747;49.480;8.658;2023-03-14T04:17:02;98334.97;;;9.92;100.00
54854;BME280;40747;49.480;8.658;2023-03-14T04:19:28;98342.31;;;10.02;100.00
54854;BME280;40747;49.480;8.658;2023-03-14T04:21:53;98339.34;;;10.08;100.00
54854;BME280;40747;49.480;8.658;2023-03-14T04:24:18;98327.56;;;10.13;100.00
54854;BME280;40747;49.480;8.658;2023-03-14T04:26:43;98325.41;;;10.06;100.00
54854;BME280;40747;49.480;8.658;2023-03-14T04:29:09;98326.53;;;10.02;100.00
54854;BME280;40747;49.480;8.658;2023-03-14T04:31:34;98315.66;;;10.08;100.00
54854;BME280;40747;49.480;8.658;2023-03-14T04:33:59;98313.28;;;10.03;100.00
54854;BME280;40747;49.480;8.658;2023-03-14T04:36:25;98310.66;;;10.03;100.00
54854;BME280;40747;49.480;8.658;2023-03-14T04:38:50;98315.34;;;10.12;100.00
54854;BME280;40747;49.480;8.658;2023-03-14T04:41:15;98313.41;;;10.02;100.00
54854;BME280;40747;49.480;8.658;2023-03-14T04:43:40;98300.03;;;10.05;100.00
54854;BME280;40747;49.480;8.658;2023-03-14T04:46:06;98306.81;;;10.09;100.00
54854;BME280;40747;49.480;8.658;2023-03-14T04:48:31;98300.50;;;9.97;100.00
54854;BME280;40747;49.480;8.658;2023-03-14T04:50:56;98301.84;;;10.04;100.00
54854;BME280;40747;49.480;8.658;2023-03-14T04:53:22;98300.81;;;10.07;100.00
54854;BME280;40747;49.480;8.658;2023-03-14T04:55:52;98294.16;;;10.15;100.00
54854;BME280;40747;49.480;8.658;2023-03-14T04:58:18;98286.97;;;10.17;99.39
54854;BME280;40747;49.480;8.658;2023-03-14T05:00:45;98291.59;;;10.14;99.72
54854;BME280;40747;49.480;8.658;2023-03-14T05:03:10;98299.88;;;10.22;99.40
54854;BME280;40747;49.480;8.658;2023-03-14T05:05:35;98291.59;;;10.14;98.49
54854;BME280;40747;49.480;8.658;2023-03-14T05:08:01;98291.41;;;10.17;99.45
54854;BME280;40747;49.480;8.658;2023-03-14T05:10:26;98288.22;;;10.12;99.91
54854;BME280;40747;49.480;8.658;2023-03-14T05:12:51;98296.78;;;10.15;99.46
54854;BME280;40747;49.480;8.658;2023-03-14T05:15:16;98299.09;;;10.20;98.94
54854;BME280;40747;49.480;8.658;2023-03-14T05:17:42;98291.38;;;9.88;100.00
54854;BME280;40747;49.480;8.658;2023-03-14T05:20:08;98302.34;;;9.51;100.00
54854;BME280;40747;49.480;8.658;2023-03-14T05:22:39;98301.16;;;9.11;100.00
54854;BME280;40747;49.480;8.658;2023-03-14T05:25:06;98301.94;;;8.97;100.00
54854;BME280;40747;49.480;8.658;2023-03-14T05:27:32;98281.91;;;9.10;100.00
54854;BME280;40747;49.480;8.658;2023-03-14T05:29:57;98293.75;;;9.33;100.00
54854;BME280;40747;49.480;8.658;2023-03-14T05:32:23;98301.03;;;9.28;100.00
54854;BME280;40747;49.480;8.658;2023-03-14T05:34:48;98295.97;;;9.25;100.00
54854;BME280;40747;49.480;8.658;2023-03-14T05:37:13;98292.50;;;9.25;100.00
54854;BME280;40747;49.480;8.658;2023-03-14T05:39:39;98296.94;;;9.08;100.00
54854;BME280;40747;49.480;8.658;2023-03-14T05:42:04;98297.66;;;9.26;100.00
54854;BME280;40747;49.480;8.658;2023-03-14T05:44:30;98288.41;;;9.35;100.00
54854;BME280;40747;49.480;8.658;2023-03-14T05:46:55;98294.00;;;9.29;100.00
54854;BME280;40747;49.480;8.658;2023-03-14T05:49:20;98297.78;;;9.39;100.00
54854;BME280;40747;49.480;8.658;2023-03-14T05:51:46;98305.31;;;9.45;100.00
54854;BME280;40747;49.480;8.658;2023-03-14T05:54:11;98280.91;;;9.43;100.00
54854;BME280;40747;49.480;8.658;2023-03-14T05:56:36;98281.50;;;9.63;99.42
54854;BME280;40747;49.480;8.658;2023-03-14T05:59:02;98272.88;;;9.75;97.64
54854;BME280;40747;49.480;8.658;2023-03-14T06:01:28;98277.22;;;9.76;97.44
54854;BME280;40747;49.480;8.658;2023-03-14T06:03:54;98273.75;;;9.90;96.90
54854;BME280;40747;49.480;8.658;2023-03-14T06:06:19;98257.31;;;9.87;96.69
54854;BME280;40747;49.480;8.658;2023-03-14T06:08:45;98255.81;;;9.82;94.92
54854;BME280;40747;49.480;8.658;2023-03-14T06:11:10;98266.41;;;9.95;95.38
54854;BME280;40747;49.480;8.658;2023-03-14T06:13:36;98273.47;;;9.95;95.16
54854;BME280;40747;49.480;8.658;2023-03-14T06:16:01;98269.63;;;10.00;96.11
54854;BME280;40747;49.480;8.658;2023-03-14T06:18:26;98271.22;;;10.03;96.10
54854;BME280;40747;49.480;8.658;2023-03-14T06:20:55;98271.00;;;10.06;96.11
54854;BME280;40747;49.480;8.658;2023-03-14T06:23:21;98269.25;;;10.07;96.09
54854;BME280;40747;49.480;8.658;2023-03-14T06:25:47;98258.63;;;10.08;95.12
54854;BME280;40747;49.480;8.658;2023-03-14T06:28:12;98248.88;;;10.10;95.36
54854;BME280;40747;49.480;8.658;2023-03-14T06:30:38;98257.59;;;10.11;94.48
54854;BME280;40747;49.480;8.658;2023-03-14T06:33:03;98251.56;;;10.09;94.49
54854;BME280;40747;49.480;8.658;2023-03-14T06:35:28;98220.19;;;10.06;94.66
54854;BME280;40747;49.480;8.658;2023-03-14T06:37:54;98249.91;;;10.08;94.32
54854;BME280;40747;49.480;8.658;2023-03-14T06:40:19;98247.34;;;10.21;95.06
54854;BME280;40747;49.480;8.658;2023-03-14T06:42:45;98245.66;;;10.20;94.47
54854;BME280;40747;49.480;8.658;2023-03-14T06:45:10;98257.09;;;10.19;93.59
54854;BME280;40747;49.480;8.658;2023-03-14T06:47:36;98262.75;;;10.12;94.06
54854;BME280;40747;49.480;8.658;2023-03-14T06:50:03;98261.78;;;10.28;94.14
54854;BME280;40747;49.480;8.658;2023-03-14T06:52:29;98263.75;;;10.24;94.79
54854;BME280;40747;49.480;8.658;2023-03-14T06:54:54;98259.63;;;10.20;94.29
54854;BME280;40747;49.480;8.658;2023-03-14T06:57:19;98261.13;;;10.24;94.65
54854;BME280;40747;49.480;8.658;2023-03-14T06:59:45;98255.25;;;10.21;94.65
54854;BME280;40747;49.480;8.658;2023-03-14T07:02:11;98252.50;;;10.22;93.88
54854;BME280;40747;49.480;8.658;2023-03-14T07:04:37;98249.00;;;10.22;93.50
54854;BME280;40747;49.480;8.658;2023-03-14T07:07:02;98240.56;;;10.16;93.70
54854;BME280;40747;49.480;8.658;2023-03-14T07:09:27;98255.03;;;10.24;93.59
54854;BME280;40747;49.480;8.658;2023-03-14T07:11:53;98228.53;;;10.12;93.92
54854;BME280;40747;49.480;8.658;2023-03-14T07:14:18;98258.22;;;10.29;93.99
54854;BME280;40747;49.480;8.658;2023-03-14T07:16:43;98260.84;;;10.29;93.48
54854;BME280;40747;49.480;8.658;2023-03-14T07:19:10;98257.28;;;10.30;93.99
54854;BME280;40747;49.480;8.658;2023-03-14T07:21:35;98262.66;;;10.28;94.03
54854;BME280;40747;49.480;8.658;2023-03-14T07:24:00;98255.25;;;10.21;94.25
54854;BME280;40747;49.480;8.658;2023-03-14T07:26:26;98263.22;;;10.33;94.79
54854;BME280;40747;49.480;8.658;2023-03-14T07:28:51;98263.59;;;10.27;93.90
54854;BME280;40747;49.480;8.658;2023-03-14T07:31:16;98266.00;;;10.30;94.34
54854;BME280;40747;49.480;8.658;2023-03-14T07:33:42;98257.38;;;10.28;95.07
54854;BME280;40747;49.480;8.658;2023-03-14T07:36:07;98263.59;;;10.27;93.78
54854;BME280;40747;49.480;8.658;2023-03-14T07:38:33;98269.41;;;10.32;95.17
54854;BME280;40747;49.480;8.658;2023-03-14T07:41:00;98274.31;;;10.39;95.82
54854;BME280;40747;49.480;8.658;2023-03-14T07:43:25;98281.19;;;10.27;96.32
54854;BME280;40747;49.480;8.658;2023-03-14T07:45:50;98266.22;;;10.27;96.14
54854;BME280;40747;49.480;8.658;2023-03-14T07:48:16;98266.13;;;10.29;97.72
54854;BME280;40747;49.480;8.658;2023-03-14T07:50:41;98260.97;;;10.27;98.21
54854;BME280;40747;49.480;8.658;2023-03-14T07:53:06;98270.06;;;10.22;96.99
54854;BME280;40747;49.480;8.658;2023-03-14T07:55:32;98268.28;;;10.22;96.98
54854;BME280;40747;49.480;8.658;2023-03-14T07:57:57;98263.03;;;10.22;97.07
54854;BME280;40747;49.480;8.658;2023-03-14T08:00:22;98272.81;;;10.35;98.47
54854;BME280;40747;49.480;8.658;2023-03-14T08:02:48;98264.91;;;10.35;96.01
54854;BME280;40747;49.480;8.658;2023-03-14T08:05:13;98246.47;;;10.20;95.45
54854;BME280;40747;49.480;8.658;2023-03-14T08:07:39;98294.78;;;10.19;95.91
54854;BME280;40747;49.480;8.658;2023-03-14T08:10:05;98273.19;;;10.28;95.39
54854;BME280;40747;49.480;8.658;2023-03-14T08:12:30;98285.56;;;10.26;95.10
54854;BME280;40747;49.480;8.658;2023-03-14T08:14:55;98289.63;;;10.32;96.04
54854;BME280;40747;49.480;8.658;2023-03-14T08:17:21;98279.09;;;10.32;96.04
54854;BME280;40747;49.480;8.658;2023-03-14T08:19:46;98287.16;;;10.29;96.31
54854;BME280;40747;49.480;8.658;2023-03-14T08:22:11;98276.91;;;10.24;96.33
54854;BME280;40747;49.480;8.658;2023-03-14T08:24:36;98287.19;;;10.43;96.57
54854;BME280;40747;49.480;8.658;2023-03-14T08:27:02;98283.88;;;10.54;96.35
54854;BME280;40747;49.480;8.658;2023-03-14T08:29:27;98288.56;;;10.63;95.54
54854;BME280;40747;49.480;8.658;2023-03-14T08:31:52;98291.63;;;10.70;95.58
54854;BME280;40747;49.480;8.658;2023-03-14T08:34:19;98303.97;;;10.70;94.65
54854;BME280;40747;49.480;8.658;2023-03-14T08:36:45;98301.34;;;10.70;95.17
54854;BME280;40747;49.480;8.658;2023-03-14T08:39:10;98303.75;;;10.73;94.20
54854;BME280;40747;49.480;8.658;2023-03-14T08:41:35;98305.00;;;10.67;94.11
54854;BME280;40747;49.480;8.658;2023-03-14T08:44:06;98300.34;;;10.85;94.10
54854;BME280;40747;49.480;8.658;2023-03-14T08:46:31;98308.25;;;10.85;92.81
54854;BME280;40747;49.480;8.658;2023-03-14T08:48:57;98304.41;;;10.91;92.70
54854;BME280;40747;49.480;8.658;2023-03-14T08:51:22;98318.66;;;11.01;93.31
54854;BME280;40747;49.480;8.658;2023-03-14T08:53:47;98320.94;;;10.93;91.53
54854;BME280;40747;49.480;8.658;2023-03-14T08:56:12;98305.13;;;10.93;90.98
54854;BME280;40747;49.480;8.658;2023-03-14T08:58:38;98323.28;;;10.83;91.15
54854;BME280;40747;49.480;8.658;2023-03-14T09:01:08;98333.38;;;10.91;92.15
54854;BME280;40747;49.480;8.658;2023-03-14T09:03:34;98317.09;;;10.84;91.46
54854;BME280;40747;49.480;8.658;2023-03-14T09:06:08;98312.75;;;10.83;92.62
54854;BME280;40747;49.480;8.658;2023-03-14T09:08:34;98319.00;;;10.82;92.79
54854;BME280;40747;49.480;8.658;2023-03-14T09:10:59;98308.75;;;10.77;93.05
54854;BME280;40747;49.480;8.658;2023-03-14T09:13:25;98318.50;;;10.90;93.22
54854;BME280;40747;49.480;8.658;2023-03-14T09:15:56;98316.69;;;10.90;91.92
54854;BME280;40747;49.480;8.658;2023-03-14T09:18:22;98315.81;;;10.77;92.24
54854;BME280;40747;49.480;8.658;2023-03-14T09:20:48;98313.34;;;10.88;94.11
54854;BME280;40747;49.480;8.658;2023-03-14T09:23:14;98306.00;;;10.93;92.64
54854;BME280;40747;49.480;8.658;2023-03-14T09:25:39;98317.31;;;10.81;93.60
54854;BME280;40747;49.480;8.658;2023-03-14T09:28:04;98312.38;;;10.89;94.38
54854;BME280;40747;49.480;8.658;2023-03-14T09:30:30;98314.66;;;10.81;94.07
54854;BME280;40747;49.480;8.658;2023-03-14T09:32:55;98311.25;;;10.93;95.07
54854;BME280;40747;49.480;8.658;2023-03-14T09:35:22;98309.22;;;11.11;94.75
54854;BME280;40747;49.480;8.658;2023-03-14T09:37:47;98309.84;;;11.15;93.46
54854;BME280;40747;49.480;8.658;2023-03-14T09:40:15;98306.66;;;11.10;93.79
54854;BME280;40747;49.480;8.658;2023-03-14T09:42:41;98297.78;;;10.98;94.38
54854;BME280;40747;49.480;8.658;2023-03-14T09:45:12;98297.97;;;10.95;94.87
54854;BME280;40747;49.480;8.658;2023-03-14T09:47:41;98305.78;;;10.96;94.79
54854;BME280;40747;49.480;8.658;2023-03-14T09:50:14;98306.09;;;11.05;95.40
54854;BME280;40747;49.480;8.658;2023-03-14T09:52:42;98302.69;;;11.17;94.89
54854;BME280;40747;49.480;8.658;2023-03-14T09:55:12;98298.63;;;10.98;95.03
54854;BME280;40747;49.480;8.658;2023-03-14T09:57:39;98301.13;;;11.27;95.18
54854;BME280;40747;49.480;8.658;2023-03-14T10:00:14;98312.84;;;11.23;92.85
54854;BME280;40747;49.480;8.658;2023-03-14T10:02:53;98311.81;;;11.39;93.57
54854;BME280;40747;49.480;8.658;2023-03-14T10:05:21;98318.88;;;11.38;93.33
54854;BME280;40747;49.480;8.658;2023-03-14T10:07:47;98321.81;;;11.34;92.99
54854;BME280;40747;49.480;8.658;2023-03-14T10:10:18;98320.19;;;11.18;93.73
54854;BME280;40747;49.480;8.658;2023-03-14T10:12:46;98326.47;;;11.03;94.69
54854;BME280;40747;49.480;8.658;2023-03-14T10:15:14;98318.59;;;10.88;94.84
54854;BME280;40747;49.480;8.658;2023-03-14T10:17:52;98327.78;;;10.95;95.69
54854;BME280;40747;49.480;8.658;2023-03-14T10:20:38;98330.53;;;10.94;96.23
54854;BME280;40747;49.480;8.658;2023-03-14T10:23:22;98328.28;;;10.88;97.55
54854;BME280;40747;49.480;8.658;2023-03-14T10:26:03;98329.09;;;11.03;97.72
54854;BME280;40747;49.480;8.658;2023-03-14T10:28:52;98326.97;;;10.95;96.58
54854;BME280;40747;49.480;8.658;2023-03-14T10:31:18;98320.81;;;11.09;97.25
54854;BME280;40747;49.480;8.658;2023-03-14T10:34:00;98321.25;;;11.15;96.41
54854;BME280;40747;49.480;8.658;2023-03-14T10:36:33;98315.31;;;11.12;97.19
54854;BME280;40747;49.480;8.658;2023-03-14T10:39:23;98313.44;;;11.14;97.44
54854;BME280;40747;49.480;8.658;2023-03-14T10:41:53;98315.72;;;11.06;97.17
54854;BME280;40747;49.480;8.658;2023-03-14T10:44:23;98312.56;;;11.13;98.32
54854;BME280;40747;49.480;8.658;2023-03-14T10:47:00;98314.53;;;11.24;96.77
54854;BME280;40747;49.480;8.658;2023-03-14T10:51:54;98326.91;;;11.09;96.57
54854;BME280;40747;49.480;8.658;2023-03-14T10:54:22;98325.84;;;11.12;98.24
54854;BME280;40747;49.480;8.658;2023-03-14T10:57:01;98334.97;;;10.93;98.56
54854;BME280;40747;49.480;8.658;2023-03-14T10:59:35;98327.78;;;10.68;100.00
54854;BME280;40747;49.480;8.658;2023-03-14T11:07:44;98338.16;;;10.42;100.00
54854;BME280;40747;49.480;8.658;2023-03-14T11:10:20;98333.72;;;10.43;100.00
54854;BME280;40747;49.480;8.658;2023-03-14T11:15:36;98336.50;;;10.25;100.00
54854;BME280;40747;49.480;8.658;2023-03-14T11:23:29;98352.84;;;10.02;100.00
54854;BME280;40747;49.480;8.658;2023-03-14T11:26:16;98353.41;;;10.07;100.00
54854;BME280;40747;49.480;8.658;2023-03-14T11:28:49;98352.56;;;10.06;100.00
54854;BME280;40747;49.480;8.658;2023-03-14T11:31:23;98354.53;;;10.03;100.00
54854;BME280;40747;49.480;8.658;2023-03-14T11:34:01;98363.56;;;10.13;100.00
54854;BME280;40747;49.480;8.658;2023-03-14T11:36:31;98357.44;;;9.98;100.00
54854;BME280;40747;49.480;8.658;2023-03-14T11:38:59;98366.38;;;9.95;100.00
54854;BME280;40747;49.480;8.658;2023-03-14T11:41:32;98376.13;;;9.93;100.00
54854;BME280;40747;49.480;8.658;2023-03-14T11:44:02;98371.63;;;9.95;100.00
54854;BME280;40747;49.480;8.658;2023-03-14T11:46:39;98380.09;;;10.00;100.00
54854;BME280;40747;49.480;8.658;2023-03-14T11:51:52;98400.00;;;10.05;100.00
54854;BME280;40747;49.480;8.658;2023-03-14T11:54:41;98399.13;;;9.90;100.00
54854;BME280;40747;49.480;8.658;2023-03-14T11:57:20;98420.59;;;9.82;100.00
54854;BME280;40747;49.480;8.658;2023-03-14T12:02:39;98459.53;;;9.91;100.00
54854;BME280;40747;49.480;8.658;2023-03-14T12:10:43;98496.59;;;10.03;100.00
54854;BME280;40747;49.480;8.658;2023-03-14T12:13:12;98501.41;;;9.94;100.00
54854;BME280;40747;49.480;8.658;2023-03-14T12:15:41;98516.28;;;9.95;100.00
54854;BME280;40747;49.480;8.658;2023-03-14T12:18:30;98527.72;;;9.94;100.00
54854;BME280;40747;49.480;8.658;2023-03-14T12:21:08;98539.59;;;10.02;100.00
54854;BME280;40747;49.480;8.658;2023-03-14T12:23:52;98546.03;;;9.96;98.22
54854;BME280;40747;49.480;8.658;2023-03-14T12:26:25;98553.50;;;10.04;100.00
54854;BME280;40747;49.480;8.658;2023-03-14T12:29:09;98574.28;;;9.92;98.43
54854;BME280;40747;49.480;8.658;2023-03-14T12:31:44;98579.72;;;9.89;98.20
54854;BME280;40747;49.480;8.658;2023-03-14T12:42:11;98614.69;;;10.07;97.60
54854;BME280;40747;49.480;8.658;2023-03-14T12:44:42;98627.59;;;9.80;94.66
54854;BME280;40747;49.480;8.658;2023-03-14T12:49:50;98647.44;;;9.70;93.04
54854;BME280;40747;49.480;8.658;2023-03-14T12:52:22;98654.09;;;9.59;92.15
54854;BME280;40747;49.480;8.658;2023-03-14T12:55:09;98669.00;;;9.59;90.12
54854;BME280;40747;49.480;8.658;2023-03-14T12:57:59;98661.25;;;9.73;91.40
54854;BME280;40747;49.480;8.658;2023-03-14T13:00:39;98666.53;;;9.73;88.52
54854;BME280;40747;49.480;8.658;2023-03-14T13:03:26;98686.53;;;9.76;88.79
54854;BME280;40747;49.480;8.658;2023-03-14T13:06:03;98689.81;;;9.63;89.72
54854;BME280;40747;49.480;8.658;2023-03-14T13:10:57;98714.06;;;9.68;93.11
54854;BME280;40747;49.480;8.658;2023-03-14T13:13:25;98715.28;;;9.79;95.48
54854;BME280;40747;49.480;8.658;2023-03-14T13:15:56;98729.06;;;9.66;90.35
54854;BME280;40747;49.480;8.658;2023-03-14T13:18:33;98733.63;;;9.63;86.28
54854;BME280;40747;49.480;8.658;2023-03-14T13:21:07;98752.22;;;9.60;86.64
54854;BME280;40747;49.480;8.658;2023-03-14T13:23:36;98762.03;;;9.56;86.41
54854;BME280;40747;49.480;8.658;2023-03-14T13:26:02;98761.72;;;9.45;85.52
54854;BME280;40747;49.480;8.658;2023-03-14T13:28:29;98769.59;;;9.62;82.36
54854;BME280;40747;49.480;8.658;2023-03-14T13:31:03;98774.84;;;9.62;82.25
54854;BME280;40747;49.480;8.658;2023-03-14T13:33:31;98791.03;;;9.72;81.42
54854;BME280;40747;49.480;8.658;2023-03-14T13:36:01;98793.38;;;9.77;80.21
54854;BME280;40747;49.480;8.658;2023-03-14T13:38:35;98794.09;;;9.80;81.11
54854;BME280;40747;49.480;8.658;2023-03-14T13:41:04;98793.88;;;9.67;80.78
54854;BME280;40747;49.480;8.658;2023-03-14T13:43:33;98798.13;;;9.52;81.51
54854;BME280;40747;49.480;8.658;2023-03-14T13:46:04;98817.69;;;9.47;79.74
54854;BME280;40747;49.480;8.658;2023-03-14T13:48:31;98824.66;;;9.65;80.24